Time;durP1;ratioP1;P1;durP2;ratioP2;P2;SDS_P1;SDS_P2;PMS_P1;PMS_P2;Temp;Humidity;BMP_temperature;BMP_pressure;BME280_temperature;BME280_humidity;BME280_pressure;Samples;Min_cycle;Max_cycle;Signal;HPM_P1;HPM_P2
2023/10/26 11:30:05;;;;;;;2.15;0.90;;;;;;;11.17;100.00;94796.69;2086332;28;20578;-65
2023/10/26 11:31:07;;;;;;;1.45;0.90;;;;;;;11.25;100.00;94800.38;2081522;28;20195;-65
2023/10/26 11:32:24;;;;;;;1.98;0.90;;;;;;;11.27;100.00;94790.66;2076842;28;20195;-65
2023/10/26 11:33:33;;;;;;;1.50;0.70;;;;;;;11.35;100.00;94797.03;2075903;28;20304;-65
2023/10/26 11:34:34;;;;;;;1.33;0.70;;;;;;;11.42;100.00;94786.00;2074042;28;20591;-65
2023/10/26 11:35:42;;;;;;;1.50;0.70;;;;;;;11.47;100.00;94782.22;2074457;28;20199;-65
2023/10/26 11:36:44;;;;;;;1.33;0.70;;;;;;;11.83;100.00;94778.47;2073051;28;20220;-65
2023/10/26 11:37:48;;;;;;;1.52;0.80;;;;;;;11.92;100.00;94776.91;2075635;28;20244;-65
2023/10/26 11:38:51;;;;;;;1.10;0.60;;;;;;;11.91;100.00;94772.66;2073230;28;20195;-65
2023/10/26 11:39:52;;;;;;;1.60;0.70;;;;;;;12.21;100.00;94772.00;2071897;28;20205;-64
2023/10/26 11:40:54;;;;;;;1.85;0.77;;;;;;;12.25;100.00;94783.03;2074204;28;20367;-66
2023/10/26 11:41:56;;;;;;;1.40;0.70;;;;;;;12.27;100.00;94782.94;2070511;28;20216;-65
2023/10/26 11:43:00;;;;;;;6.75;0.65;;;;;;;12.29;100.00;94781.00;2072411;28;20209;-65
2023/10/26 11:44:01;;;;;;;4.72;0.60;;;;;;;12.38;100.00;94781.09;2073199;28;20252;-64
2023/10/26 11:45:04;;;;;;;1.55;0.70;;;;;;;12.22;100.00;94785.91;2072787;28;21111;-65
2023/10/26 11:46:05;;;;;;;4.05;0.85;;;;;;;12.35;100.00;94783.13;2075501;28;20182;-65
2023/10/26 11:47:07;;;;;;;1.70;0.73;;;;;;;12.44;100.00;94779.75;2080523;28;20197;-68
2023/10/26 11:48:09;;;;;;;1.50;0.75;;;;;;;12.58;100.00;94781.25;2072940;28;20704;-68
2023/10/26 11:49:10;;;;;;;3.58;0.70;;;;;;;12.66;100.00;94786.69;2073039;28;20272;-69
2023/10/26 11:50:18;;;;;;;1.60;0.65;;;;;;;12.72;100.00;94786.19;2073730;28;20439;-68
2023/10/26 11:51:20;;;;;;;2.70;0.85;;;;;;;13.01;100.00;94780.28;2071386;28;20280;-68
2023/10/26 11:52:22;;;;;;;1.70;0.60;;;;;;;12.98;100.00;94767.47;2072081;28;20201;-68
2023/10/26 11:53:26;;;;;;;7.57;0.70;;;;;;;12.98;100.00;94764.00;2075155;28;20200;-69
2023/10/26 11:54:27;;;;;;;1.70;0.60;;;;;;;12.85;100.00;94770.28;2074259;28;20205;-68
2023/10/26 11:55:31;;;;;;;1.50;0.60;;;;;;;12.96;98.28;94766.75;2077281;28;20189;-69
2023/10/26 11:56:33;;;;;;;1.55;0.70;;;;;;;12.97;100.00;94757.94;2076447;28;20316;-68
2023/10/26 11:57:34;;;;;;;1.85;0.63;;;;;;;12.99;99.12;94763.88;2074784;28;20239;-68
2023/10/26 11:58:36;;;;;;;1.23;0.60;;;;;;;13.17;98.19;94766.72;2074110;28;20198;-68
2023/10/26 11:59:37;;;;;;;2.33;0.65;;;;;;;13.17;97.00;94761.50;2073609;28;20205;-68
2023/10/26 12:00:39;;;;;;;1.20;0.60;;;;;;;13.10;96.78;94759.53;2074849;28;20209;-68
2023/10/26 12:01:40;;;;;;;1.27;0.60;;;;;;;13.24;98.63;94759.16;2073414;28;20312;-68
2023/10/26 12:02:42;;;;;;;1.20;0.60;;;;;;;13.50;96.47;94764.84;2074427;28;20764;-68
2023/10/26 12:03:45;;;;;;;1.27;0.60;;;;;;;13.32;97.02;94761.13;2074144;28;20194;-68
2023/10/26 12:04:49;;;;;;;1.23;0.60;;;;;;;13.54;97.80;94758.34;2072377;28;20235;-68
2023/10/26 12:05:50;;;;;;;3.90;0.80;;;;;;;13.60;96.92;94750.91;2072929;28;20281;-68
2023/10/26 12:06:52;;;;;;;2.03;0.80;;;;;;;13.97;93.68;94768.72;2073631;28;20221;-68
2023/10/26 12:07:53;;;;;;;1.20;0.60;;;;;;;13.98;93.22;94765.09;2075502;28;20408;-68
2023/10/26 12:08:55;;;;;;;1.80;0.80;;;;;;;14.40;92.89;94766.66;2075126;28;20202;-68
2023/10/26 12:09:56;;;;;;;2.40;0.60;;;;;;;14.20;89.34;94758.78;2073774;28;20666;-68
2023/10/26 12:10:58;;;;;;;6.50;2.00;;;;;;;14.02;91.35;94756.00;2070891;28;20243;-68
2023/10/26 12:11:59;;;;;;;1.10;0.60;;;;;;;13.28;94.16;94744.00;2070406;28;20780;-68
2023/10/26 12:13:01;;;;;;;1.92;0.70;;;;;;;13.87;95.35;94750.31;2075014;28;20659;-68
2023/10/26 12:14:02;;;;;;;2.25;0.88;;;;;;;13.85;96.92;94747.84;2074556;28;20205;-68
2023/10/26 12:15:05;;;;;;;1.83;0.80;;;;;;;13.44;98.36;94747.00;2074314;28;20661;-68
2023/10/26 12:16:07;;;;;;;1.30;0.70;;;;;;;13.91;97.14;94753.50;2074335;28;20292;-67
2023/10/26 12:17:09;;;;;;;1.40;0.80;;;;;;;14.20;95.12;94759.59;2074510;28;20189;-68
2023/10/26 12:18:11;;;;;;;1.63;0.70;;;;;;;14.10;92.76;94748.28;2073845;28;20216;-68
2023/10/26 12:19:12;;;;;;;3.40;0.95;;;;;;;13.76;93.97;94743.38;2075510;28;20263;-68
2023/10/26 12:20:14;;;;;;;2.33;0.80;;;;;;;13.79;94.09;94740.50;2072850;28;20544;-68
2023/10/26 12:21:16;;;;;;;1.95;0.90;;;;;;;13.74;94.86;94745.31;2073076;28;20277;-68
2023/10/26 12:22:19;;;;;;;1.58;0.70;;;;;;;13.66;95.45;94735.50;2074647;28;20197;-68
2023/10/26 12:23:20;;;;;;;2.38;0.85;;;;;;;13.60;94.13;94735.19;2074688;28;20264;-68
2023/10/26 12:24:21;;;;;;;1.25;0.70;;;;;;;13.76;94.85;94739.94;2075645;28;20190;-68
2023/10/26 12:25:23;;;;;;;1.45;0.80;;;;;;;14.01;93.32;94742.03;2075314;28;20197;-68
2023/10/26 12:26:24;;;;;;;2.75;0.90;;;;;;;14.10;94.29;94737.78;2072578;28;20225;-68
2023/10/26 12:27:26;;;;;;;1.60;0.93;;;;;;;14.40;92.97;94737.78;2072467;28;20194;-68
2023/10/26 12:28:27;;;;;;;2.30;0.85;;;;;;;13.88;94.14;94733.63;2072258;28;20205;-68
2023/10/26 12:29:31;;;;;;;2.10;0.80;;;;;;;13.93;95.55;94728.78;2073764;28;20741;-69
2023/10/26 12:30:33;;;;;;;1.90;0.95;;;;;;;14.05;95.16;94734.72;2075177;28;20218;-68
2023/10/26 12:31:41;;;;;;;1.60;0.90;;;;;;;14.87;91.90;94730.03;2073791;28;20221;-68
2023/10/26 12:32:42;;;;;;;1.67;1.00;;;;;;;15.18;90.31;94735.06;2074315;28;20284;-68
2023/10/26 12:33:44;;;;;;;1.52;0.80;;;;;;;15.28;89.39;94735.84;2073929;28;20201;-68
2023/10/26 12:34:45;;;;;;;1.85;0.90;;;;;;;15.00;89.49;94734.97;2074443;28;20486;-67
2023/10/26 12:35:50;;;;;;;3.05;0.80;;;;;;;15.29;88.38;94734.88;2073670;28;20205;-68
2023/10/26 12:36:52;;;;;;;2.42;1.40;;;;;;;15.43;87.08;94733.59;2073323;28;20232;-68
2023/10/26 12:37:53;;;;;;;1.40;0.82;;;;;;;15.76;85.54;94733.97;2073790;28;20228;-68
2023/10/26 12:38:55;;;;;;;2.20;0.98;;;;;;;15.98;86.47;94732.75;2074330;28;20197;-68
2023/10/26 12:39:56;;;;;;;3.35;0.70;;;;;;;16.25;85.22;94725.81;2073961;28;20202;-68
2023/10/26 12:40:58;;;;;;;2.42;1.10;;;;;;;16.22;84.08;94727.91;2070322;28;20210;-68
2023/10/26 12:41:59;;;;;;;1.60;0.82;;;;;;;16.16;84.08;94722.28;2064099;28;20690;-68
2023/10/26 12:43:01;;;;;;;14.48;7.93;;;;;;;16.23;85.02;94725.13;2067133;28;20280;-69
2023/10/26 12:44:03;;;;;;;2.55;1.30;;;;;;;15.93;84.93;94729.75;2064992;28;20202;-69
2023/10/26 12:45:05;;;;;;;2.22;0.80;;;;;;;15.98;85.71;94724.06;2067901;28;20626;-70
2023/10/26 12:46:07;;;;;;;1.60;0.80;;;;;;;15.34;87.01;94722.13;2066123;28;20202;-68
2023/10/26 12:47:08;;;;;;;1.80;0.70;;;;;;;15.27;89.87;94728.13;2071665;28;20669;-69
2023/10/26 12:48:09;;;;;;;1.83;0.80;;;;;;;15.58;88.34;94730.47;2071241;28;20197;-69
2023/10/26 12:49:11;;;;;;;1.70;0.70;;;;;;;15.36;88.11;94735.13;2065211;28;20244;-69
2023/10/26 12:50:12;;;;;;;1.88;0.90;;;;;;;15.17;89.21;94734.25;2068366;28;20205;-68
2023/10/26 12:51:14;;;;;;;3.08;0.80;;;;;;;15.00;90.26;94735.78;2066428;28;20225;-69
2023/10/26 12:52:15;;;;;;;3.85;0.80;;;;;;;14.84;89.76;94723.28;2069363;28;20190;-69
2023/10/26 12:53:17;;;;;;;2.35;0.95;;;;;;;14.73;89.38;94728.69;2069756;28;20190;-69
2023/10/26 12:54:18;;;;;;;1.85;0.70;;;;;;;14.81;91.53;94728.78;2071053;28;20190;-68
2023/10/26 12:55:23;;;;;;;8.88;0.77;;;;;;;15.12;90.26;94736.47;2067649;28;20756;-69
2023/10/26 12:56:25;;;;;;;1.95;1.05;;;;;;;15.15;88.25;94722.22;2069902;28;20225;-69
2023/10/26 12:57:27;;;;;;;1.83;0.90;;;;;;;15.14;90.05;94715.31;2068130;28;20195;-69
2023/10/26 12:58:28;;;;;;;1.90;0.90;;;;;;;15.17;89.67;94718.47;2067495;28;20277;-69
2023/10/26 12:59:30;;;;;;;9.13;0.90;;;;;;;15.42;90.32;94715.34;2067308;28;20754;-68
2023/10/26 13:00:31;;;;;;;3.55;1.10;;;;;;;15.19;91.08;94713.88;2066418;28;20216;-68
2023/10/26 13:01:33;;;;;;;3.08;1.00;;;;;;;15.28;90.25;94716.63;2066309;28;20241;-69
2023/10/26 13:02:36;;;;;;;6.32;0.88;;;;;;;15.07;89.17;94715.06;2067745;28;20202;-69
2023/10/26 13:03:37;;;;;;;1.95;0.90;;;;;;;15.04;90.16;94714.50;2067944;28;20202;-69
2023/10/26 13:04:39;;;;;;;3.70;0.90;;;;;;;15.31;90.79;94708.44;2066981;28;20710;-69
2023/10/26 13:05:40;;;;;;;2.17;0.70;;;;;;;15.01;91.89;94703.28;2066474;28;20194;-69
2023/10/26 13:06:42;;;;;;;3.83;1.10;;;;;;;14.93;92.84;94702.34;2066431;28;20249;-69
2023/10/26 13:07:43;;;;;;;3.50;0.88;;;;;;;14.87;91.96;94698.50;2068199;28;20822;-69
2023/10/26 13:08:45;;;;;;;2.40;0.85;;;;;;;14.56;92.49;94703.91;2066700;28;20194;-69
2023/10/26 13:09:46;;;;;;;2.63;0.90;;;;;;;14.01;94.64;94699.25;2068160;28;20672;-69
2023/10/26 13:10:48;;;;;;;4.07;0.90;;;;;;;13.67;97.58;94699.59;2068252;28;20206;-69
2023/10/26 13:11:50;;;;;;;5.97;1.02;;;;;;;13.51;98.68;94700.94;2068054;28;20245;-69
2023/10/26 13:12:51;;;;;;;2.22;0.80;;;;;;;13.51;99.17;94700.94;2067936;28;20225;-69
2023/10/26 13:13:52;;;;;;;6.75;1.20;;;;;;;13.30;100.00;94700.97;2067976;28;20198;-68
2023/10/26 13:14:54;;;;;;;2.70;1.10;;;;;;;13.20;100.00;94692.25;2067573;28;20242;-69
2023/10/26 13:16:09;;;;;;;4.05;1.10;;;;;;;13.22;100.00;94691.16;2067630;28;20205;-68
2023/10/26 13:17:10;;;;;;;3.03;0.98;;;;;;;13.14;100.00;94685.78;2068468;28;20198;-68
2023/10/26 13:18:12;;;;;;;2.70;1.20;;;;;;;13.12;100.00;94681.63;2070236;28;20218;-68
2023/10/26 13:19:13;;;;;;;4.32;1.00;;;;;;;12.88;100.00;94685.38;2068924;28;20639;-68
2023/10/26 13:20:15;;;;;;;3.08;1.27;;;;;;;12.88;100.00;94685.38;2068576;28;20245;-68
2023/10/26 13:21:16;;;;;;;4.18;1.20;;;;;;;12.94;100.00;94682.22;2067088;28;20193;-69
2023/10/26 13:22:18;;;;;;;4.75;1.25;;;;;;;12.99;100.00;94680.03;2067733;28;20226;-68
2023/10/26 13:23:19;;;;;;;2.50;1.13;;;;;;;12.82;100.00;94689.31;2067853;28;20202;-67
2023/10/26 13:24:20;;;;;;;2.20;1.00;;;;;;;12.76;100.00;94692.47;2066980;28;20232;-68
2023/10/26 13:25:23;;;;;;;4.55;1.75;;;;;;;12.81;100.00;94692.94;2068911;28;20225;-68
2023/10/26 13:26:25;;;;;;;3.83;1.33;;;;;;;12.84;100.00;94683.97;2065411;28;20291;-68
2023/10/26 13:27:26;;;;;;;4.63;1.40;;;;;;;12.84;100.00;94695.28;2068211;28;20213;-68
2023/10/26 13:28:28;;;;;;;6.18;1.40;;;;;;;12.87;100.00;94691.56;2067890;28;20597;-68
2023/10/26 13:29:29;;;;;;;3.55;1.30;;;;;;;12.90;100.00;94702.63;2068220;28;20236;-68
2023/10/26 13:30:31;;;;;;;7.28;1.42;;;;;;;12.95;100.00;94704.00;2067707;28;20211;-68
2023/10/26 13:31:32;;;;;;;3.90;1.25;;;;;;;12.98;100.00;94701.13;2065985;28;20788;-68
2023/10/26 13:32:34;;;;;;;5.63;1.27;;;;;;;13.00;100.00;94697.44;2066437;28;20229;-68
